Campo di Volo "Air Country"

IT-0442 · 阿布鲁佐, 意大利

使用的METAR站距离机场53 km。
罗盘
风向 的 风向 220° Campo di Volo "Air Country" 10/28
风: 4 kt, 2 beaufort

2 kt

3 kt
改变
0 ft 1.000 2.000 3.000 4.000 5.000
未检测到零云
METAR LIBP 232320Z AUTO 22004KT 9999 NCD 24/20 Q1013

METAR Campo di Volo "Air Country" - IT-0442

Campo di Volo "Air Country"是,意大利中的小机场。 该机场位于纬度42,80628和经度13,78501。 该机场有一条跑道: 10/28. 这个机场没有ICAO代码,我们使用IT-0442作为参考。 机场在Brindisi FIR中。

该航空气象观测是针对Pescara International Airport在2024年7月24日 01:20, 当地时间进行的。

机场观察

风向为220°,速度为4 kt。

可见度为10 km 或者更多。

有未检测到零云。 没有观察到天花板。

温度和风寒是24 °C。 露点为20 °C,相对湿度为78%。 海平面上的气压为1013 hPa (QNH)。

白天

今天,太阳从05:47升起,在20:35降落。 这适用于Campo di Volo "Air Country",世界夏令时可能有所不同。 当地时间与世界标准时间之间的时差为+2 小时。 夏令时目前正在进行中。

公司介绍

我们没有关于这个机场的公司信息。

体会

到Vliegles.nl去找飞行课程,跳伞和其他飞行体验。 浏览页面,了解Campo di Volo "Air Country"附近所有可用的活动。 你也可以使用搜索功能来寻找你所在地附近的特定飞行课程、跳伞或其他飞行体验。

跑道

Id 标题 侧风 逆风 侧风 %
10/28 100°-280° 3 kt 2 kt 87 %

逆风成分最大的方向会被突出显示,并用于横风计算。 这并不一定意味着这个方向在使用。

乌云

- NCD 未检测到零云

温度 & 天气

温度 24 °C
露点 20 °C
相对湿度 78%
Kp-index 1 (0-9)

白天

日出
05:47 (3:54)
中午
13:09
日落
20:32

小工具

你想在你的网站上有一个关于Campo di Volo "Air Country"的当前航空天气(METAR)的小部件吗?

显示HTML代码
报告变更